Smorumnedre, Denmark
Current Conditions -  °F | °C
As of 9:50 AM on Thursday 23 Oct 2014 (Local Time) from EKRK Reporting Station
Overcast Overcast  
Wind Chill: 54°   Ceiling: 1800
Heat Index: 54°   Visibility: 6mi
Dew Point: 48°   Wind: 14mph
Humidity: 82%   Direction: 130°SE
Pressure: 30.12"   Gusts: NA
Location:  55.74°N, 12.3°E
Report Text: EKRK 230750Z AUTO 13012KT 9999NDV FEW015/// BKN018///OVC021/// 12/09 Q1020
Loading
Personal Weather Stations






























Interactive Weather Map
Tropical Storm Tracking
New forecast layout! Learn more

10-Day Weather Forecast

Advertisements
Track Severe Weather on mobile